Terminal Aerodrome Forecast
Issued by NWS

Home | Current Version | Previous Version | Text Only | Print | Product List | Glossary On
Versions: 1 2 3 4 5 6 7 8 9 10 11 12 13 14 15
000
FTUS45 KBOI 131131
TAFMYL
TAF
KMYL 131131Z 1312/1412 VRB03KT P6SM BKN100
     FM131400 VRB03KT 6SM -SN BR OVC030
     FM140400 VRB03KT 3SM -SN BR BKN008=

USA.gov is the U.S. government's official web portal to all federal, state and local government web resources and services.